Time;durP1;ratioP1;P1;durP2;ratioP2;P2;SDS_P1;SDS_P2;PMS_P1;PMS_P2;Temp;Humidity;BMP_temperature;BMP_pressure;BME280_temperature;BME280_humidity;BME280_pressure;Samples;Min_cycle;Max_cycle;Signal;HPM_P1;HPM_P2
2023/10/03 00:00:27;;;;;;;;;;;17.00;99.90;;;;;;5013804;28;19946;-71
2023/10/03 00:02:56;;;;;;;;;;;17.00;99.90;;;;;;5014219;28;20275;-71
2023/10/03 00:05:22;;;;;;;;;;;17.00;99.90;;;;;;5015447;28;20291;-71
2023/10/03 00:07:51;;;;;;;;;;;17.00;99.90;;;;;;5016701;28;19917;-71
2023/10/03 00:10:18;;;;;;;;;;;17.00;99.90;;;;;;5016267;28;19983;-71
2023/10/03 00:12:44;;;;;;;;;;;17.00;99.90;;;;;;5013882;28;19974;-71
2023/10/03 00:15:12;;;;;;;;;;;17.00;99.90;;;;;;4995987;28;19913;-71
2023/10/03 00:17:38;;;;;;;;;;;17.00;99.90;;;;;;5010114;28;20391;-71
2023/10/03 00:20:04;;;;;;;;;;;16.90;99.90;;;;;;5015589;28;20298;-71
2023/10/03 00:22:30;;;;;;;;;;;16.90;99.90;;;;;;4990466;28;20631;-70
2023/10/03 00:24:55;;;;;;;;;;;16.90;99.90;;;;;;5010448;28;19943;-71
2023/10/03 00:27:23;;;;;;;;;;;16.90;99.90;;;;;;4997757;28;20166;-70
2023/10/03 00:29:51;;;;;;;;;;;16.90;99.90;;;;;;5004351;28;19917;-70
2023/10/03 00:32:16;;;;;;;;;;;16.80;99.90;;;;;;5014178;28;19963;-71
2023/10/03 00:34:42;;;;;;;;;;;16.70;99.90;;;;;;5007401;28;20158;-71
2023/10/03 00:37:08;;;;;;;;;;;16.70;99.90;;;;;;5016477;28;20318;-71
2023/10/03 00:39:33;;;;;;;;;;;16.70;99.90;;;;;;5000765;28;19913;-71
2023/10/03 00:42:05;;;;;;;;;;;16.70;99.90;;;;;;5015523;28;20012;-71
2023/10/03 00:44:31;;;;;;;;;;;16.60;99.90;;;;;;4998028;28;19924;-71
2023/10/03 00:46:57;;;;;;;;;;;16.70;99.90;;;;;;5009136;28;20338;-71
2023/10/03 00:49:24;;;;;;;;;;;16.60;99.90;;;;;;5014157;28;19921;-71
2023/10/03 00:51:51;;;;;;;;;;;16.60;99.90;;;;;;5019370;28;19917;-71
2023/10/03 00:54:17;;;;;;;;;;;16.60;99.90;;;;;;5004466;28;20005;-71
2023/10/03 00:56:43;;;;;;;;;;;16.50;99.90;;;;;;5015343;28;19917;-70
2023/10/03 00:59:10;;;;;;;;;;;16.50;99.90;;;;;;5008807;28;19940;-71
2023/10/03 01:01:36;;;;;;;;;;;16.50;99.90;;;;;;5013177;28;19913;-70
2023/10/03 01:04:16;;;;;;;;;;;16.40;99.90;;;;;;5012373;28;19951;-70
2023/10/03 01:06:42;;;;;;;;;;;16.40;99.90;;;;;;5014407;28;19916;-70
2023/10/03 01:09:15;;;;;;;;;;;16.40;99.90;;;;;;5000085;28;19933;-71
2023/10/03 01:11:42;;;;;;;;;;;16.30;99.90;;;;;;5014716;28;19955;-71
2023/10/03 01:14:08;;;;;;;;;;;16.30;99.90;;;;;;5012723;28;20428;-71
2023/10/03 01:16:36;;;;;;;;;;;16.30;99.90;;;;;;5016334;28;19921;-70
2023/10/03 01:19:15;;;;;;;;;;;16.20;99.90;;;;;;5013953;28;19984;-71
2023/10/03 01:21:41;;;;;;;;;;;16.20;99.90;;;;;;5014413;28;19940;-70
2023/10/03 01:24:09;;;;;;;;;;;16.20;99.90;;;;;;4996625;28;19913;-71
2023/10/03 01:26:34;;;;;;;;;;;16.20;99.90;;;;;;4996627;28;19915;-70
2023/10/03 01:29:00;;;;;;;;;;;16.20;99.90;;;;;;5014450;28;19995;-70
2023/10/03 01:31:27;;;;;;;;;;;16.10;99.90;;;;;;5007751;28;19923;-71
2023/10/03 01:33:52;;;;;;;;;;;16.10;99.90;;;;;;5024140;28;19920;-70
2023/10/03 01:36:19;;;;;;;;;;;16.00;99.90;;;;;;5019668;28;19929;-71
2023/10/03 01:38:45;;;;;;;;;;;16.00;99.90;;;;;;5014579;28;19913;-70
2023/10/03 01:41:12;;;;;;;;;;;16.00;99.90;;;;;;4999326;28;20269;-70
2023/10/03 01:43:43;;;;;;;;;;;16.00;99.90;;;;;;5011135;28;19917;-70
2023/10/03 01:46:12;;;;;;;;;;;15.90;99.90;;;;;;4997399;28;20311;-71
2023/10/03 01:48:38;;;;;;;;;;;15.90;99.90;;;;;;5014464;28;19924;-70
2023/10/03 01:51:04;;;;;;;;;;;15.90;99.90;;;;;;5019277;28;19913;-70
2023/10/03 01:53:30;;;;;;;;;;;15.90;99.90;;;;;;5014494;28;19917;-71
2023/10/03 01:55:56;;;;;;;;;;;15.80;99.90;;;;;;5017296;28;19943;-70
2023/10/03 01:58:24;;;;;;;;;;;15.80;99.90;;;;;;5009456;28;19914;-71
2023/10/03 02:00:50;;;;;;;;;;;15.80;99.90;;;;;;5009141;28;19921;-70
2023/10/03 02:03:16;;;;;;;;;;;15.70;99.90;;;;;;5017432;28;19913;-70
2023/10/03 02:05:42;;;;;;;;;;;15.70;99.90;;;;;;4995227;28;19918;-71
2023/10/03 02:08:10;;;;;;;;;;;15.70;99.90;;;;;;5010546;28;20304;-70
2023/10/03 02:10:36;;;;;;;;;;;15.70;99.90;;;;;;5013576;28;19970;-70
2023/10/03 02:13:11;;;;;;;;;;;15.60;99.90;;;;;;5015163;28;19909;-70
2023/10/03 02:15:39;;;;;;;;;;;15.60;99.90;;;;;;5010794;28;19916;-70
2023/10/03 02:18:09;;;;;;;;;;;15.50;99.90;;;;;;5019384;28;19955;-70
2023/10/03 02:20:52;;;;;;;;;;;15.50;99.90;;;;;;5012399;28;20015;-70
2023/10/03 02:23:19;;;;;;;;;;;15.50;99.90;;;;;;4999064;28;19996;-70
2023/10/03 02:25:45;;;;;;;;;;;15.50;99.90;;;;;;5015508;28;19909;-70
2023/10/03 02:28:14;;;;;;;;;;;15.50;99.90;;;;;;5017599;28;19917;-70
2023/10/03 02:30:40;;;;;;;;;;;15.40;99.90;;;;;;5012958;28;19960;-70
2023/10/03 02:33:24;;;;;;;;;;;15.40;99.90;;;;;;5015561;28;20438;-70
2023/10/03 02:35:50;;;;;;;;;;;15.40;99.90;;;;;;5006964;28;20313;-70
2023/10/03 02:38:30;;;;;;;;;;;15.40;99.90;;;;;;4999314;28;19913;-70
2023/10/03 02:40:57;;;;;;;;;;;15.30;99.90;;;;;;5017561;28;19913;-70
2023/10/03 02:43:23;;;;;;;;;;;15.30;99.90;;;;;;5014544;28;19933;-70
2023/10/03 02:45:48;;;;;;;;;;;15.30;99.90;;;;;;4998094;28;19917;-71
2023/10/03 02:48:14;;;;;;;;;;;15.30;99.90;;;;;;5013535;28;19924;-70
2023/10/03 02:50:41;;;;;;;;;;;15.30;99.90;;;;;;5018946;28;20464;-70
2023/10/03 02:53:12;;;;;;;;;;;15.20;99.90;;;;;;5001298;28;19913;-70
2023/10/03 02:55:39;;;;;;;;;;;15.20;99.90;;;;;;5013390;28;19909;-71
2023/10/03 02:58:05;;;;;;;;;;;15.20;99.90;;;;;;5017663;28;19935;-70
2023/10/03 03:00:32;;;;;;;;;;;15.10;99.90;;;;;;4998594;28;20268;-70
2023/10/03 03:02:58;;;;;;;;;;;15.10;99.90;;;;;;5017141;28;19916;-70
2023/10/03 03:05:24;;;;;;;;;;;15.10;99.90;;;;;;5020675;28;19913;-70
2023/10/03 03:07:54;;;;;;;;;;;15.10;99.90;;;;;;5013988;28;20285;-70
2023/10/03 03:10:21;;;;;;;;;;;15.10;99.90;;;;;;5017127;28;20880;-71
2023/10/03 03:12:47;;;;;;;;;;;15.10;99.90;;;;;;5018717;28;19913;-71
2023/10/03 03:15:22;;;;;;;;;;;15.00;99.90;;;;;;5014649;28;20358;-70
2023/10/03 03:17:48;;;;;;;;;;;15.00;99.90;;;;;;5022644;28;19921;-70
2023/10/03 03:20:27;;;;;;;;;;;15.00;99.90;;;;;;5004096;28;19960;-70
2023/10/03 03:22:53;;;;;;;;;;;15.00;99.90;;;;;;5014932;28;19917;-70
2023/10/03 03:25:33;;;;;;;;;;;15.00;99.90;;;;;;5009972;28;19951;-70
2023/10/03 03:28:00;;;;;;;;;;;15.00;99.90;;;;;;5020642;28;19920;-70
2023/10/03 03:32:53;;;;;;;;;;;14.90;99.90;;;;;;5012209;28;19932;-70
2023/10/03 03:35:21;;;;;;;;;;;14.90;99.90;;;;;;5015480;28;20515;-70
2023/10/03 03:37:47;;;;;;;;;;;14.90;99.90;;;;;;4997657;28;19913;-70
2023/10/03 03:40:26;;;;;;;;;;;14.90;99.90;;;;;;5014599;28;19917;-70
2023/10/03 03:42:52;;;;;;;;;;;14.90;99.90;;;;;;5013239;28;19924;-70
2023/10/03 03:45:21;;;;;;;;;;;14.90;99.90;;;;;;5008884;28;19921;-70
2023/10/03 03:47:50;;;;;;;;;;;14.90;99.90;;;;;;4996848;28;19948;-70
2023/10/03 03:50:20;;;;;;;;;;;14.80;99.90;;;;;;4998836;28;20019;-71
2023/10/03 03:52:46;;;;;;;;;;;14.80;99.90;;;;;;5013843;28;20594;-70
2023/10/03 03:55:11;;;;;;;;;;;14.80;99.90;;;;;;5016595;28;19920;-70
2023/10/03 03:57:38;;;;;;;;;;;14.70;99.90;;;;;;5016999;28;19948;-70
2023/10/03 04:00:14;;;;;;;;;;;14.70;99.90;;;;;;5005114;28;19966;-70
2023/10/03 04:02:40;;;;;;;;;;;14.70;99.90;;;;;;4994901;28;19913;-71
2023/10/03 04:05:07;;;;;;;;;;;14.60;99.90;;;;;;5017875;28;20387;-70
2023/10/03 04:07:38;;;;;;;;;;;14.60;99.90;;;;;;5009691;28;19955;-70
2023/10/03 04:10:09;;;;;;;;;;;14.60;99.90;;;;;;5014900;28;20213;-70
2023/10/03 04:12:41;;;;;;;;;;;14.50;99.90;;;;;;5012810;28;20561;-71
2023/10/03 04:15:10;;;;;;;;;;;14.50;99.90;;;;;;5013159;28;20479;-71
2023/10/03 04:17:36;;;;;;;;;;;14.50;99.90;;;;;;5006027;28;19917;-71
2023/10/03 04:20:05;;;;;;;;;;;14.40;99.90;;;;;;5009130;28;19913;-69
2023/10/03 04:22:31;;;;;;;;;;;14.40;99.90;;;;;;5000405;28;20376;-70
2023/10/03 04:24:57;;;;;;;;;;;14.40;99.90;;;;;;5012961;28;21020;-70
2023/10/03 04:27:25;;;;;;;;;;;14.40;99.90;;;;;;5018352;28;19913;-70
2023/10/03 04:29:51;;;;;;;;;;;14.40;99.90;;;;;;5009725;28;19960;-71
2023/10/03 04:32:17;;;;;;;;;;;14.40;99.90;;;;;;4996452;28;19917;-71
2023/10/03 04:34:43;;;;;;;;;;;14.40;99.90;;;;;;5013625;28;19923;-71
2023/10/03 04:37:10;;;;;;;;;;;14.40;99.90;;;;;;5012088;28;19921;-71
2023/10/03 04:39:35;;;;;;;;;;;14.40;99.90;;;;;;5013966;28;19913;-71
2023/10/03 04:42:01;;;;;;;;;;;14.30;99.90;;;;;;5011299;28;19995;-71
2023/10/03 04:44:26;;;;;;;;;;;14.30;99.90;;;;;;5013901;28;20291;-71
2023/10/03 04:46:52;;;;;;;;;;;14.30;99.90;;;;;;5009084;28;19909;-71
2023/10/03 04:49:17;;;;;;;;;;;14.30;99.90;;;;;;5006781;28;19917;-71
2023/10/03 04:51:47;;;;;;;;;;;14.30;99.90;;;;;;5011008;28;20008;-70
2023/10/03 04:54:13;;;;;;;;;;;14.30;99.90;;;;;;5014226;28;19971;-70
2023/10/03 04:56:38;;;;;;;;;;;14.20;99.90;;;;;;5015063;28;19917;-70
2023/10/03 04:59:04;;;;;;;;;;;14.20;99.90;;;;;;5011902;28;19949;-70
2023/10/03 05:01:29;;;;;;;;;;;14.20;99.90;;;;;;4997873;28;19921;-68
2023/10/03 05:03:55;;;;;;;;;;;14.20;99.90;;;;;;5008866;28;19971;-67
2023/10/03 05:06:21;;;;;;;;;;;14.30;99.90;;;;;;5012012;28;19912;-66
2023/10/03 05:08:47;;;;;;;;;;;14.30;99.90;;;;;;5013008;28;19918;-70
2023/10/03 05:11:13;;;;;;;;;;;14.40;99.90;;;;;;5017776;28;19917;-67
2023/10/03 05:13:43;;;;;;;;;;;14.40;99.90;;;;;;5017402;28;20583;-68
2023/10/03 05:16:09;;;;;;;;;;;14.50;99.90;;;;;;5016760;28;19928;-67
2023/10/03 05:18:34;;;;;;;;;;;14.70;99.90;;;;;;5010894;28;19912;-69
2023/10/03 05:21:00;;;;;;;;;;;14.90;99.90;;;;;;5012264;28;20326;-69
2023/10/03 05:23:26;;;;;;;;;;;15.00;99.90;;;;;;5016003;28;20098;-69
2023/10/03 05:25:52;;;;;;;;;;;15.20;99.90;;;;;;5020175;28;20461;-69
2023/10/03 05:28:18;;;;;;;;;;;15.60;99.90;;;;;;5020045;28;19936;-77
2023/10/03 05:30:45;;;;;;;;;;;15.90;99.90;;;;;;5021531;28;19913;-76
2023/10/03 05:33:10;;;;;;;;;;;16.20;99.90;;;;;;5003440;28;20420;-76
2023/10/03 05:35:36;;;;;;;;;;;16.70;99.90;;;;;;5023847;28;19944;-76
2023/10/03 05:38:08;;;;;;;;;;;17.00;99.90;;;;;;5009399;28;19920;-76
2023/10/03 05:40:34;;;;;;;;;;;17.30;99.90;;;;;;5018013;28;19963;-76
2023/10/03 05:43:03;;;;;;;;;;;17.80;99.90;;;;;;4998450;28;20399;-77
2023/10/03 05:45:29;;;;;;;;;;;18.40;99.90;;;;;;5007684;28;19921;-76
2023/10/03 05:47:55;;;;;;;;;;;18.60;99.90;;;;;;5012155;28;19913;-76
2023/10/03 05:50:21;;;;;;;;;;;18.90;99.90;;;;;;5015936;28;19917;-77
2023/10/03 05:52:47;;;;;;;;;;;19.50;99.90;;;;;;5018453;28;19987;-77
2023/10/03 05:55:13;;;;;;;;;;;20.00;99.90;;;;;;5020507;28;20004;-77
2023/10/03 05:57:42;;;;;;;;;;;20.20;99.90;;;;;;5019439;28;21116;-76
2023/10/03 06:00:18;;;;;;;;;;;20.40;99.90;;;;;;5011464;28;20358;-77
2023/10/03 06:02:46;;;;;;;;;;;20.50;99.90;;;;;;5017271;28;19909;-76
2023/10/03 06:05:13;;;;;;;;;;;20.60;99.90;;;;;;5017998;28;19963;-77
2023/10/03 06:07:41;;;;;;;;;;;20.70;99.90;;;;;;5020356;28;19929;-78
2023/10/03 06:10:07;;;;;;;;;;;20.70;99.90;;;;;;5019889;28;19909;-77
2023/10/03 06:12:32;;;;;;;;;;;20.90;99.90;;;;;;5012405;28;19913;-77
2023/10/03 06:14:58;;;;;;;;;;;20.20;99.90;;;;;;5018237;28;20359;-77
2023/10/03 06:17:24;;;;;;;;;;;19.70;99.90;;;;;;4996810;28;20326;-77
2023/10/03 06:19:52;;;;;;;;;;;19.60;99.90;;;;;;5018449;28;20042;-77
2023/10/03 06:22:18;;;;;;;;;;;19.90;99.90;;;;;;4996705;28;20025;-77
2023/10/03 06:24:45;;;;;;;;;;;20.60;99.90;;;;;;5021130;28;19944;-77
2023/10/03 06:27:11;;;;;;;;;;;20.90;99.90;;;;;;4998628;28;19913;-77
2023/10/03 06:29:40;;;;;;;;;;;21.10;99.90;;;;;;5012654;28;19952;-77
2023/10/03 06:32:06;;;;;;;;;;;21.10;99.90;;;;;;5017950;28;19921;-77
2023/10/03 06:34:33;;;;;;;;;;;21.30;99.90;;;;;;5017101;28;20277;-77
2023/10/03 06:37:00;;;;;;;;;;;21.10;99.90;;;;;;5022140;28;19917;-76
2023/10/03 06:39:26;;;;;;;;;;;21.10;99.90;;;;;;5014979;28;19923;-77
2023/10/03 06:41:55;;;;;;;;;;;21.30;99.90;;;;;;5017907;28;20331;-77
2023/10/03 06:44:21;;;;;;;;;;;21.40;99.90;;;;;;5013667;28;19917;-77
2023/10/03 06:46:47;;;;;;;;;;;21.50;99.90;;;;;;5007947;28;19920;-77
2023/10/03 06:49:13;;;;;;;;;;;21.60;99.90;;;;;;5001152;28;20027;-77
2023/10/03 06:51:39;;;;;;;;;;;22.70;99.90;;;;;;5001462;28;20798;-77
2023/10/03 06:54:05;;;;;;;;;;;24.10;99.90;;;;;;5008263;28;19939;-77
2023/10/03 06:56:32;;;;;;;;;;;24.00;99.90;;;;;;5018772;28;19916;-77
2023/10/03 06:58:59;;;;;;;;;;;23.40;99.90;;;;;;5000189;28;19917;-77
2023/10/03 07:01:24;;;;;;;;;;;24.50;99.90;;;;;;5017676;28;20010;-77
2023/10/03 07:03:51;;;;;;;;;;;25.00;99.70;;;;;;5019145;28;20316;-77
2023/10/03 07:06:18;;;;;;;;;;;24.30;99.50;;;;;;4997202;28;19939;-77
2023/10/03 07:08:44;;;;;;;;;;;23.70;99.90;;;;;;5019593;28;20500;-77
2023/10/03 07:11:10;;;;;;;;;;;23.80;99.90;;;;;;5000239;28;20051;-76
2023/10/03 07:13:35;;;;;;;;;;;23.30;99.90;;;;;;4999690;28;19913;-77
2023/10/03 07:16:01;;;;;;;;;;;23.70;99.90;;;;;;4996042;28;20296;-76
2023/10/03 07:18:26;;;;;;;;;;;24.50;99.90;;;;;;5000335;28;20376;-76
2023/10/03 07:20:52;;;;;;;;;;;24.70;99.30;;;;;;5016428;28;19913;-77
2023/10/03 07:23:19;;;;;;;;;;;26.50;97.90;;;;;;5010696;28;19917;-78
2023/10/03 07:25:45;;;;;;;;;;;28.20;95.60;;;;;;5012809;28;19928;-77
2023/10/03 07:28:12;;;;;;;;;;;28.80;93.80;;;;;;5000280;28;19917;-76
2023/10/03 07:30:38;;;;;;;;;;;28.20;93.20;;;;;;5013124;28;20000;-76
2023/10/03 07:33:05;;;;;;;;;;;28.20;93.60;;;;;;5016956;28;19996;-77
2023/10/03 07:35:33;;;;;;;;;;;30.50;91.50;;;;;;4999831;28;19909;-78
2023/10/03 07:37:58;;;;;;;;;;;31.20;87.10;;;;;;5016720;28;20364;-78
2023/10/03 07:40:27;;;;;;;;;;;30.40;85.40;;;;;;5015306;28;19909;-76
2023/10/03 07:42:53;;;;;;;;;;;29.80;87.70;;;;;;5014839;28;19924;-78
2023/10/03 07:45:18;;;;;;;;;;;30.20;87.30;;;;;;4994355;28;21293;-78
2023/10/03 07:47:45;;;;;;;;;;;30.30;86.70;;;;;;5006590;28;19913;-77
2023/10/03 07:50:11;;;;;;;;;;;31.30;85.20;;;;;;5011633;28;19917;-77
2023/10/03 07:52:37;;;;;;;;;;;32.80;81.90;;;;;;5017913;28;19913;-77
2023/10/03 07:55:03;;;;;;;;;;;33.70;78.90;;;;;;5018917;28;20019;-78
2023/10/03 07:57:30;;;;;;;;;;;32.30;77.80;;;;;;5002940;28;20272;-77
2023/10/03 07:59:56;;;;;;;;;;;32.40;77.60;;;;;;5006415;28;20355;-77
2023/10/03 08:02:29;;;;;;;;;;;30.40;79.40;;;;;;5012815;28;19913;-76
2023/10/03 08:05:00;;;;;;;;;;;29.10;82.90;;;;;;5016563;28;19909;-77
2023/10/03 08:07:27;;;;;;;;;;;29.60;82.40;;;;;;5008414;28;20487;-77
2023/10/03 08:09:53;;;;;;;;;;;29.70;82.40;;;;;;5017595;28;19986;-77
2023/10/03 08:12:25;;;;;;;;;;;28.90;82.30;;;;;;5015300;28;19921;-76
2023/10/03 08:14:52;;;;;;;;;;;28.60;84.00;;;;;;5007499;28;20405;-76
2023/10/03 08:17:26;;;;;;;;;;;30.10;82.10;;;;;;5007755;28;19921;-77
2023/10/03 08:19:51;;;;;;;;;;;29.80;81.70;;;;;;5001264;28;19963;-77
2023/10/03 08:22:17;;;;;;;;;;;29.90;82.70;;;;;;5007999;28;19913;-76
2023/10/03 08:24:45;;;;;;;;;;;30.40;81.00;;;;;;5014032;28;19982;-77
2023/10/03 08:27:18;;;;;;;;;;;30.90;79.50;;;;;;5003996;28;19948;-76
2023/10/03 08:29:57;;;;;;;;;;;31.40;78.30;;;;;;4998554;28;19924;-77
2023/10/03 08:32:25;;;;;;;;;;;30.30;79.20;;;;;;5015494;28;19925;-77
2023/10/03 08:34:51;;;;;;;;;;;31.10;79.10;;;;;;5013633;28;19910;-77
2023/10/03 08:37:21;;;;;;;;;;;30.60;79.10;;;;;;4998129;28;19929;-76
2023/10/03 08:39:50;;;;;;;;;;;30.20;78.90;;;;;;4998310;28;19975;-76
2023/10/03 08:42:17;;;;;;;;;;;30.10;80.60;;;;;;5014870;28;19924;-76
2023/10/03 08:44:53;;;;;;;;;;;30.80;79.80;;;;;;4997667;28;19924;-76
2023/10/03 08:47:28;;;;;;;;;;;29.60;80.90;;;;;;5013535;28;20356;-75
2023/10/03 08:50:29;;;;;;;;;;;28.30;83.70;;;;;;5013159;28;19910;-76
2023/10/03 08:52:56;;;;;;;;;;;29.60;83.30;;;;;;4994254;28;19909;-77
2023/10/03 08:55:23;;;;;;;;;;;32.20;78.40;;;;;;5008596;28;19913;-77
2023/10/03 08:57:49;;;;;;;;;;;32.20;78.00;;;;;;5014665;28;19925;-77
2023/10/03 09:00:15;;;;;;;;;;;33.50;77.00;;;;;;5000684;28;19979;-76
2023/10/03 09:02:47;;;;;;;;;;;34.10;74.90;;;;;;5008164;28;20353;-77
2023/10/03 09:05:19;;;;;;;;;;;33.70;74.70;;;;;;5001373;28;19909;-76
2023/10/03 09:07:45;;;;;;;;;;;33.20;75.50;;;;;;5017351;28;19921;-76
2023/10/03 09:10:22;;;;;;;;;;;32.40;76.10;;;;;;5015602;28;19908;-77
2023/10/03 09:12:49;;;;;;;;;;;33.20;75.80;;;;;;5000021;28;19924;-77
2023/10/03 09:15:17;;;;;;;;;;;34.40;73.80;;;;;;4996521;28;20489;-77
2023/10/03 09:17:49;;;;;;;;;;;35.70;72.50;;;;;;4997029;28;20359;-76
2023/10/03 09:20:22;;;;;;;;;;;37.00;70.20;;;;;;4999532;28;19913;-76
2023/10/03 09:22:48;;;;;;;;;;;36.50;69.70;;;;;;5015368;28;19913;-76
2023/10/03 09:25:16;;;;;;;;;;;36.90;69.10;;;;;;5015115;28;19939;-76
2023/10/03 09:27:43;;;;;;;;;;;35.90;69.30;;;;;;5013688;28;20356;-76
2023/10/03 09:30:10;;;;;;;;;;;36.50;68.80;;;;;;5001100;28;19968;-76
2023/10/03 09:32:39;;;;;;;;;;;36.00;68.60;;;;;;5011717;28;19979;-76
2023/10/03 09:35:11;;;;;;;;;;;35.60;69.30;;;;;;5013333;28;20038;-76
2023/10/03 09:37:43;;;;;;;;;;;36.20;68.80;;;;;;5013952;28;19972;-77
2023/10/03 09:40:16;;;;;;;;;;;37.30;68.00;;;;;;5014109;28;19917;-76
2023/10/03 09:42:51;;;;;;;;;;;37.90;66.70;;;;;;5012199;28;19939;-76
2023/10/03 09:45:24;;;;;;;;;;;37.70;66.00;;;;;;4997009;28;20577;-76
2023/10/03 09:47:58;;;;;;;;;;;37.50;66.40;;;;;;5001901;28;19917;-77
2023/10/03 09:50:27;;;;;;;;;;;36.10;66.50;;;;;;5018598;28;19935;-76
2023/10/03 09:52:53;;;;;;;;;;;36.40;67.40;;;;;;4999262;28;20268;-76
2023/10/03 09:55:26;;;;;;;;;;;36.90;66.50;;;;;;5017552;28;19924;-76
2023/10/03 09:57:54;;;;;;;;;;;36.70;66.80;;;;;;5015209;28;19921;-76
2023/10/03 10:00:38;;;;;;;;;;;35.60;67.80;;;;;;5021558;28;20233;-76
2023/10/03 10:03:19;;;;;;;;;;;36.70;67.60;;;;;;5017600;28;19909;-76
2023/10/03 10:06:12;;;;;;;;;;;35.50;67.20;;;;;;5012169;28;19916;-77
2023/10/03 10:08:47;;;;;;;;;;;36.20;66.90;;;;;;5004187;28;19917;-76
2023/10/03 10:11:13;;;;;;;;;;;36.40;66.50;;;;;;5018890;28;20004;-76
2023/10/03 10:13:59;;;;;;;;;;;37.80;65.30;;;;;;5016442;28;20107;-76
2023/10/03 10:16:28;;;;;;;;;;;36.30;65.30;;;;;;5001331;28;19944;-76
2023/10/03 10:18:54;;;;;;;;;;;35.90;66.10;;;;;;5011131;28;19909;-76
2023/10/03 10:21:20;;;;;;;;;;;37.30;65.20;;;;;;5018989;28;19948;-78
2023/10/03 10:24:04;;;;;;;;;;;38.50;64.00;;;;;;5020876;28;19917;-76
2023/10/03 10:26:31;;;;;;;;;;;37.70;64.00;;;;;;5011132;28;19965;-77
2023/10/03 10:29:05;;;;;;;;;;;37.50;64.60;;;;;;5021615;28;20667;-77
2023/10/03 10:31:39;;;;;;;;;;;38.30;63.70;;;;;;5020164;28;19965;-76
2023/10/03 10:34:20;;;;;;;;;;;39.30;62.50;;;;;;5000946;28;19956;-76
2023/10/03 10:37:11;;;;;;;;;;;39.60;61.40;;;;;;5019614;28;19921;-76
2023/10/03 10:39:52;;;;;;;;;;;39.10;61.40;;;;;;5012655;28;19914;-76
2023/10/03 10:42:20;;;;;;;;;;;39.10;62.10;;;;;;5016913;28;19917;-76
2023/10/03 10:45:04;;;;;;;;;;;39.10;61.60;;;;;;4999352;28;19960;-76
2023/10/03 10:47:33;;;;;;;;;;;38.30;62.40;;;;;;5012496;28;19913;-76
2023/10/03 10:50:00;;;;;;;;;;;37.70;62.40;;;;;;5017107;28;19980;-77
2023/10/03 10:52:48;;;;;;;;;;;34.50;64.60;;;;;;5014521;28;19943;-77
2023/10/03 10:55:14;;;;;;;;;;;31.50;68.80;;;;;;5001100;28;20447;-77
2023/10/03 10:57:40;;;;;;;;;;;29.60;72.00;;;;;;5017033;28;20504;-77
2023/10/03 11:00:21;;;;;;;;;;;28.70;74.40;;;;;;5017166;28;19920;-77
2023/10/03 11:02:47;;;;;;;;;;;28.50;75.60;;;;;;5009925;28;19995;-77
2023/10/03 11:05:12;;;;;;;;;;;28.40;76.30;;;;;;4998193;28;20063;-77
2023/10/03 11:07:44;;;;;;;;;;;28.10;77.10;;;;;;5016319;28;19913;-77
2023/10/03 11:10:15;;;;;;;;;;;27.50;79.10;;;;;;5019044;28;20383;-76
2023/10/03 11:12:41;;;;;;;;;;;26.90;80.80;;;;;;5019577;28;19913;-76
2023/10/03 11:15:10;;;;;;;;;;;26.50;81.90;;;;;;4999166;28;19909;-77
2023/10/03 11:17:36;;;;;;;;;;;26.30;83.30;;;;;;5018255;28;19949;-76
2023/10/03 11:20:08;;;;;;;;;;;26.00;84.70;;;;;;5020969;28;20392;-77
2023/10/03 11:22:37;;;;;;;;;;;25.90;84.70;;;;;;5015133;28;20375;-77
2023/10/03 11:25:07;;;;;;;;;;;26.00;85.40;;;;;;5017681;28;19913;-77
2023/10/03 11:27:33;;;;;;;;;;;25.90;86.20;;;;;;5002050;28;20364;-75
2023/10/03 11:29:58;;;;;;;;;;;26.10;87.20;;;;;;5002026;28;19909;-76
2023/10/03 11:32:25;;;;;;;;;;;26.20;86.40;;;;;;5003886;28;19913;-75
2023/10/03 11:34:52;;;;;;;;;;;26.50;85.70;;;;;;5012966;28;19973;-75
2023/10/03 11:37:34;;;;;;;;;;;26.60;86.00;;;;;;5019060;28;19917;-75
2023/10/03 11:40:20;;;;;;;;;;;26.70;86.30;;;;;;5003053;28;19915;-75
2023/10/03 11:42:52;;;;;;;;;;;26.80;87.00;;;;;;5007619;28;19963;-74
2023/10/03 11:45:22;;;;;;;;;;;26.70;86.80;;;;;;5017283;28;19921;-75
2023/10/03 11:48:07;;;;;;;;;;;26.80;86.50;;;;;;4999521;28;19919;-74
2023/10/03 11:50:34;;;;;;;;;;;27.00;87.10;;;;;;5014047;28;20851;-75
2023/10/03 11:53:00;;;;;;;;;;;27.10;86.10;;;;;;5019385;28;20527;-75
2023/10/03 11:55:28;;;;;;;;;;;27.10;85.60;;;;;;5020735;28;20375;-74
2023/10/03 11:57:53;;;;;;;;;;;26.80;86.80;;;;;;5015541;28;19949;-75
2023/10/03 12:00:24;;;;;;;;;;;26.60;87.50;;;;;;5018918;28;20373;-74
2023/10/03 12:02:50;;;;;;;;;;;26.20;88.40;;;;;;4997894;28;19917;-75
2023/10/03 12:05:20;;;;;;;;;;;26.20;88.60;;;;;;5000252;28;19940;-75
2023/10/03 12:07:47;;;;;;;;;;;26.30;89.70;;;;;;5007099;28;19917;-74
2023/10/03 12:10:16;;;;;;;;;;;26.40;89.50;;;;;;5008654;28;20384;-73
2023/10/03 12:12:42;;;;;;;;;;;26.60;90.00;;;;;;5014529;28;19916;-74
2023/10/03 12:15:12;;;;;;;;;;;26.50;89.80;;;;;;4997012;28;19913;-74
2023/10/03 12:17:39;;;;;;;;;;;26.50;89.50;;;;;;4997757;28;19979;-73
2023/10/03 12:20:06;;;;;;;;;;;26.40;89.80;;;;;;5002386;28;19913;-74
2023/10/03 12:22:31;;;;;;;;;;;26.30;89.90;;;;;;5020248;28;20624;-74
2023/10/03 12:24:59;;;;;;;;;;;26.40;89.90;;;;;;4999170;28;19916;-75
2023/10/03 12:27:26;;;;;;;;;;;26.70;89.30;;;;;;5023741;28;19917;-75
2023/10/03 12:29:51;;;;;;;;;;;26.90;89.10;;;;;;5006976;28;20078;-74
2023/10/03 12:32:17;;;;;;;;;;;27.10;88.80;;;;;;4999014;28;21343;-74
2023/10/03 12:34:43;;;;;;;;;;;27.30;88.10;;;;;;5016548;28;20004;-76
2023/10/03 12:37:11;;;;;;;;;;;27.50;87.60;;;;;;5020350;28;19956;-74
2023/10/03 12:39:37;;;;;;;;;;;27.50;88.10;;;;;;5017232;28;19913;-74
2023/10/03 12:42:04;;;;;;;;;;;27.50;88.60;;;;;;5016156;28;19921;-74
2023/10/03 12:44:31;;;;;;;;;;;27.60;89.00;;;;;;5007979;28;19928;-75
2023/10/03 12:46:58;;;;;;;;;;;27.50;88.90;;;;;;5016029;28;20357;-74
2023/10/03 12:49:23;;;;;;;;;;;27.30;89.40;;;;;;5018557;28;19979;-75
2023/10/03 12:51:50;;;;;;;;;;;27.30;89.10;;;;;;5016114;28;19913;-75
2023/10/03 12:54:16;;;;;;;;;;;27.30;89.00;;;;;;5013004;28;19925;-75
2023/10/03 12:56:42;;;;;;;;;;;27.50;89.40;;;;;;5019094;28;20257;-73
2023/10/03 12:59:08;;;;;;;;;;;27.30;88.90;;;;;;4997587;28;19928;-74
2023/10/03 13:01:35;;;;;;;;;;;27.10;89.40;;;;;;5006632;28;20861;-74
2023/10/03 13:04:01;;;;;;;;;;;27.10;89.80;;;;;;5010267;28;19959;-74
2023/10/03 13:06:27;;;;;;;;;;;27.20;90.00;;;;;;5009910;28;19916;-75
2023/10/03 13:08:52;;;;;;;;;;;27.30;89.10;;;;;;5014586;28;20380;-75
2023/10/03 13:11:18;;;;;;;;;;;27.30;88.80;;;;;;5018571;28;19917;-74
2023/10/03 13:13:47;;;;;;;;;;;27.30;89.40;;;;;;4997053;28;19928;-75
2023/10/03 13:16:14;;;;;;;;;;;27.10;89.20;;;;;;5017434;28;19913;-75
2023/10/03 13:18:39;;;;;;;;;;;27.00;90.10;;;;;;5015320;28;19917;-74
2023/10/03 13:21:05;;;;;;;;;;;27.00;90.00;;;;;;4998041;28;20707;-74
2023/10/03 13:23:31;;;;;;;;;;;26.90;90.00;;;;;;5017267;28;20569;-74
2023/10/03 13:25:57;;;;;;;;;;;27.00;90.30;;;;;;5009948;28;19913;-74
2023/10/03 13:28:25;;;;;;;;;;;27.00;89.80;;;;;;5002534;28;19952;-75
2023/10/03 13:30:50;;;;;;;;;;;27.10;89.50;;;;;;5020095;28;19917;-68
2023/10/03 13:33:16;;;;;;;;;;;27.30;89.40;;;;;;5014484;28;19979;-67
2023/10/03 13:35:42;;;;;;;;;;;27.30;89.00;;;;;;5018938;28;19956;-67
2023/10/03 13:38:07;;;;;;;;;;;27.10;89.80;;;;;;5017133;28;19917;-67
2023/10/03 13:40:33;;;;;;;;;;;27.00;90.00;;;;;;5015265;28;19963;-68
2023/10/03 13:43:00;;;;;;;;;;;26.90;90.00;;;;;;5010291;28;20532;-66
2023/10/03 13:45:27;;;;;;;;;;;26.90;90.00;;;;;;5014220;28;19921;-66
2023/10/03 13:47:55;;;;;;;;;;;26.80;90.10;;;;;;5016912;28;21493;-67
2023/10/03 13:50:21;;;;;;;;;;;26.70;90.40;;;;;;5014671;28;20403;-66
2023/10/03 13:52:47;;;;;;;;;;;26.60;90.40;;;;;;5017034;28;19913;-68
2023/10/03 13:55:14;;;;;;;;;;;26.60;90.60;;;;;;5014287;28;20412;-67
2023/10/03 13:57:40;;;;;;;;;;;26.70;90.50;;;;;;5019110;28;20038;-68
2023/10/03 14:00:06;;;;;;;;;;;26.70;90.20;;;;;;5018423;28;19920;-67
2023/10/03 14:02:35;;;;;;;;;;;26.70;90.40;;;;;;5014621;28;19909;-68
2023/10/03 14:05:03;;;;;;;;;;;26.60;90.30;;;;;;5015231;28;19917;-67
2023/10/03 14:07:31;;;;;;;;;;;26.40;90.40;;;;;;5017365;28;20043;-66
2023/10/03 14:09:57;;;;;;;;;;;26.20;90.90;;;;;;5012776;28;20386;-68
2023/10/03 14:12:23;;;;;;;;;;;26.10;91.00;;;;;;4995084;28;19960;-67
2023/10/03 14:14:48;;;;;;;;;;;25.90;91.20;;;;;;5017854;28;19952;-68
2023/10/03 14:17:14;;;;;;;;;;;25.80;91.50;;;;;;5015362;28;20415;-69
2023/10/03 14:19:39;;;;;;;;;;;25.70;91.50;;;;;;5016897;28;19916;-68
2023/10/03 14:22:05;;;;;;;;;;;25.60;91.80;;;;;;5020331;28;20384;-68
2023/10/03 14:24:30;;;;;;;;;;;25.60;91.90;;;;;;5012814;28;19924;-69